Time;durP1;ratioP1;P1;durP2;ratioP2;P2;SDS_P1;SDS_P2;PMS_P1;PMS_P2;Temp;Humidity;BMP_temperature;BMP_pressure;BME280_temperature;BME280_humidity;BME280_pressure;Samples;Min_cycle;Max_cycle;Signal;HPM_P1;HPM_P2
2024/01/22 00:00:21;;;;;;;3.03;0.50;;;14.30;69.10;;;;;;5029617;28;20033;-75
2024/01/22 00:02:47;;;;;;;2.35;1.10;;;14.30;69.20;;;;;;5029396;28;20041;-76
2024/01/22 00:05:13;;;;;;;2.95;0.50;;;14.20;69.10;;;;;;5009693;28;20038;-74
2024/01/22 00:07:39;;;;;;;4.55;1.60;;;14.30;69.30;;;;;;5031292;28;20117;-75
2024/01/22 00:10:06;;;;;;;3.20;0.95;;;14.30;69.40;;;;;;5016569;28;20032;-75
2024/01/22 00:12:32;;;;;;;3.67;0.73;;;14.30;69.40;;;;;;5022631;28;20114;-76
2024/01/22 00:14:58;;;;;;;4.88;1.35;;;14.20;69.30;;;;;;5039071;28;20043;-74
2024/01/22 00:17:24;;;;;;;4.47;1.00;;;14.20;69.30;;;;;;5040086;28;20108;-75
2024/01/22 00:19:50;;;;;;;5.97;2.03;;;14.20;69.40;;;;;;5040513;28;20420;-75
2024/01/22 00:22:16;;;;;;;4.25;1.02;;;14.20;69.50;;;;;;5039691;28;20126;-75
2024/01/22 00:24:42;;;;;;;4.25;1.30;;;14.20;69.50;;;;;;5039527;28;20452;-74
2024/01/22 00:27:09;;;;;;;6.38;1.58;;;14.20;69.50;;;;;;5036986;28;20145;-74
2024/01/22 00:29:35;;;;;;;5.47;1.65;;;14.20;69.50;;;;;;5038166;28;20025;-74
2024/01/22 00:32:02;;;;;;;6.43;2.67;;;14.20;69.50;;;;;;5039623;28;20044;-75
2024/01/22 00:34:27;;;;;;;7.90;2.67;;;14.20;69.50;;;;;;5039240;28;20472;-76
2024/01/22 00:36:53;;;;;;;6.20;1.67;;;14.20;69.50;;;;;;5039808;28;20029;-75
2024/01/22 00:39:19;;;;;;;9.82;2.85;;;14.20;69.50;;;;;;5038399;28;20036;-75
2024/01/22 00:41:45;;;;;;;10.18;2.38;;;14.20;69.50;;;;;;5026592;28;20033;-74
2024/01/22 00:44:11;;;;;;;9.68;3.95;;;14.10;69.30;;;;;;5007827;28;20390;-75
2024/01/22 00:46:37;;;;;;;9.10;3.17;;;14.10;69.30;;;;;;5025283;28;20120;-73
2024/01/22 00:49:03;;;;;;;8.95;2.83;;;14.10;69.30;;;;;;5010176;28;20147;-76
2024/01/22 00:51:29;;;;;;;7.43;2.35;;;14.10;69.30;;;;;;5024852;28;20460;-76
2024/01/22 00:53:56;;;;;;;10.48;2.30;;;14.10;69.20;;;;;;5044138;28;20036;-75
2024/01/22 00:56:24;;;;;;;8.23;2.33;;;14.10;69.20;;;;;;4984587;28;20299;-74
2024/01/22 00:58:50;;;;;;;10.38;3.55;;;14.10;69.20;;;;;;5034719;28;20037;-74
2024/01/22 01:01:15;;;;;;;15.15;3.40;;;14.00;69.00;;;;;;4997760;28;20040;-75
2024/01/22 01:03:41;;;;;;;12.35;3.15;;;14.00;68.90;;;;;;5038343;28;20489;-75
2024/01/22 01:06:07;;;;;;;9.45;3.20;;;14.00;68.90;;;;;;5005690;28;20567;-75
2024/01/22 01:08:33;;;;;;;6.80;2.38;;;14.00;68.90;;;;;;5037564;28;20112;-76
2024/01/22 01:10:59;;;;;;;15.63;3.17;;;14.00;68.90;;;;;;5043207;28;20040;-74
2024/01/22 01:13:26;;;;;;;13.05;3.53;;;14.00;68.90;;;;;;5023651;28;20048;-75
2024/01/22 01:15:52;;;;;;;11.93;3.45;;;14.00;68.90;;;;;;5021763;28;20023;-75
2024/01/22 01:18:18;;;;;;;15.98;4.10;;;14.00;68.90;;;;;;5042128;28;20056;-74
2024/01/22 01:20:44;;;;;;;16.30;5.10;;;14.00;68.80;;;;;;5041669;28;20363;-74
2024/01/22 01:23:10;;;;;;;13.82;4.50;;;14.00;68.80;;;;;;5024000;28;20155;-77
2024/01/22 01:25:37;;;;;;;24.65;6.13;;;13.90;68.60;;;;;;5036699;28;20128;-77
2024/01/22 01:28:03;;;;;;;17.48;4.70;;;13.90;68.60;;;;;;5044023;28;20359;-76
2024/01/22 01:30:29;;;;;;;19.60;4.78;;;13.90;68.60;;;;;;5039519;28;20021;-77
2024/01/22 01:32:55;;;;;;;20.73;6.20;;;13.90;68.60;;;;;;5025084;28;20037;-76
2024/01/22 01:35:23;;;;;;;25.67;6.57;;;13.90;68.60;;;;;;5023514;28;20032;-75
2024/01/22 01:37:49;;;;;;;19.05;5.75;;;13.90;68.60;;;;;;5042363;28;20178;-75
2024/01/22 01:40:16;;;;;;;20.10;6.30;;;13.80;68.50;;;;;;5028548;28;20036;-74
2024/01/22 01:42:43;;;;;;;22.50;5.22;;;13.90;68.70;;;;;;5022751;28;20048;-75
2024/01/22 01:45:14;;;;;;;18.45;4.80;;;13.80;68.50;;;;;;5023076;28;20045;-76
2024/01/22 01:47:44;;;;;;;19.27;5.90;;;13.80;68.60;;;;;;5024147;28;20057;-74
2024/01/22 01:50:10;;;;;;;21.35;6.22;;;13.80;68.60;;;;;;5041621;28;20032;-76
2024/01/22 01:52:37;;;;;;;29.70;8.40;;;13.80;68.60;;;;;;5021762;28;20094;-75
2024/01/22 01:55:07;;;;;;;24.23;7.15;;;13.80;69.20;;;;;;5037330;28;20397;-76
2024/01/22 01:57:36;;;;;;;23.27;6.00;;;13.80;68.70;;;;;;5007000;28;20041;-77
2024/01/22 02:00:05;;;;;;;21.45;5.50;;;13.80;68.70;;;;;;5023106;28;20290;-76
2024/01/22 02:02:32;;;;;;;19.10;5.85;;;13.80;68.70;;;;;;5016040;28;20149;-75
2024/01/22 02:04:58;;;;;;;21.05;5.45;;;13.70;68.60;;;;;;5042503;28;20048;-75
2024/01/22 02:07:23;;;;;;;27.90;7.93;;;13.80;68.80;;;;;;5020317;28;20028;-76
2024/01/22 02:09:53;;;;;;;23.90;6.43;;;13.80;68.80;;;;;;5036844;28;20494;-75
2024/01/22 02:12:19;;;;;;;25.23;6.18;;;13.70;68.70;;;;;;5041590;28;20400;-77
2024/01/22 02:14:46;;;;;;;23.88;6.10;;;13.70;68.70;;;;;;5017604;28;20373;-76
2024/01/22 02:17:18;;;;;;;18.95;7.55;;;13.70;68.80;;;;;;5038717;28;20550;-74
2024/01/22 02:19:45;;;;;;;23.85;6.63;;;13.70;68.80;;;;;;5024420;28;20082;-74
2024/01/22 02:22:12;;;;;;;23.85;6.68;;;13.70;68.80;;;;;;5023761;28;20195;-75
2024/01/22 02:24:41;;;;;;;24.52;7.25;;;13.70;68.80;;;;;;5028740;28;20057;-78
2024/01/22 02:27:17;;;;;;;25.58;6.22;;;13.70;68.80;;;;;;5026164;28;20029;-75
2024/01/22 02:29:44;;;;;;;22.38;6.78;;;13.70;68.80;;;;;;5045036;28;20033;-75
2024/01/22 02:32:10;;;;;;;28.17;7.13;;;13.60;68.70;;;;;;5041865;28;20078;-75
2024/01/22 02:34:37;;;;;;;24.52;6.82;;;13.60;68.70;;;;;;5042851;28;20415;-74
2024/01/22 02:37:03;;;;;;;18.88;6.32;;;13.60;68.70;;;;;;5025271;28;20021;-76
2024/01/22 02:39:29;;;;;;;30.77;8.15;;;13.60;68.70;;;;;;5023390;28;20029;-74
2024/01/22 02:41:56;;;;;;;24.85;6.55;;;13.50;68.60;;;;;;5043756;28;20190;-75
2024/01/22 02:44:22;;;;;;;30.65;9.15;;;13.50;68.60;;;;;;5043652;28;20501;-79
2024/01/22 02:46:49;;;;;;;28.05;7.28;;;13.50;68.60;;;;;;5038761;28;20063;-76
2024/01/22 02:49:15;;;;;;;26.42;7.57;;;13.50;68.60;;;;;;5047118;28;20106;-77
2024/01/22 02:51:44;;;;;;;24.10;7.20;;;13.40;68.40;;;;;;5028748;28;20065;-78
2024/01/22 02:54:12;;;;;;;26.98;7.63;;;13.40;68.50;;;;;;5046765;28;20441;-77
2024/01/22 02:56:39;;;;;;;32.35;7.22;;;13.40;68.50;;;;;;5040503;28;20305;-76
2024/01/22 02:59:07;;;;;;;26.98;6.82;;;13.30;68.30;;;;;;5047391;28;20047;-77
2024/01/22 03:01:33;;;;;;;28.92;8.43;;;13.40;68.50;;;;;;5047105;28;20469;-76
2024/01/22 03:03:58;;;;;;;29.17;6.90;;;13.30;68.30;;;;;;5027109;28;20048;-76
2024/01/22 03:06:24;;;;;;;25.35;7.07;;;13.30;68.40;;;;;;5041611;28;20506;-76
2024/01/22 03:08:50;;;;;;;37.20;7.45;;;13.30;68.40;;;;;;5021125;28;20037;-76
2024/01/22 03:11:17;;;;;;;29.67;7.18;;;13.20;68.20;;;;;;5028867;28;20397;-75
2024/01/22 03:13:44;;;;;;;26.33;7.03;;;13.20;68.20;;;;;;5031967;28;20415;-77
2024/01/22 03:16:10;;;;;;;28.88;7.65;;;13.20;68.30;;;;;;5045016;28;20530;-77
2024/01/22 03:18:36;;;;;;;24.80;8.63;;;13.20;68.30;;;;;;5028405;28;20488;-76
2024/01/22 03:21:04;;;;;;;28.38;7.72;;;13.10;68.10;;;;;;5047128;28;20029;-76
2024/01/22 03:23:30;;;;;;;24.15;7.22;;;13.10;68.10;;;;;;5046324;28;20280;-76
2024/01/22 03:25:56;;;;;;;31.45;8.30;;;13.10;68.10;;;;;;5040693;28;20052;-76
2024/01/22 03:28:22;;;;;;;27.60;6.63;;;13.10;68.10;;;;;;5046749;28;20033;-75
2024/01/22 03:30:49;;;;;;;32.55;8.95;;;13.10;68.10;;;;;;5046053;28;20028;-77
2024/01/22 03:33:14;;;;;;;23.38;6.13;;;13.00;67.90;;;;;;5010250;28;20133;-76
2024/01/22 03:35:40;;;;;;;22.00;6.80;;;13.00;68.00;;;;;;5046576;28;20047;-76
2024/01/22 03:38:06;;;;;;;25.17;6.50;;;13.00;68.00;;;;;;5027393;28;20035;-77
2024/01/22 03:40:32;;;;;;;21.58;7.07;;;13.00;68.00;;;;;;5028213;28;20033;-76
2024/01/22 03:42:59;;;;;;;26.08;6.38;;;12.90;67.80;;;;;;5028202;28;20370;-77
2024/01/22 03:45:25;;;;;;;23.92;7.00;;;12.90;67.80;;;;;;5046160;28;20428;-77
2024/01/22 03:47:51;;;;;;;26.13;5.63;;;12.80;67.70;;;;;;5041748;28;20047;-76
2024/01/22 03:50:17;;;;;;;28.15;5.93;;;12.90;67.90;;;;;;5045873;28;20037;-76
2024/01/22 03:52:43;;;;;;;27.85;8.80;;;12.90;67.90;;;;;;5027692;28;20405;-76
2024/01/22 03:55:10;;;;;;;18.83;6.07;;;12.80;67.70;;;;;;5041944;28;20037;-75
2024/01/22 03:57:38;;;;;;;23.38;5.65;;;12.80;67.70;;;;;;5046570;28;20035;-77
2024/01/22 04:00:05;;;;;;;26.35;6.50;;;12.80;67.70;;;;;;5028423;28;20557;-77
2024/01/22 04:02:34;;;;;;;22.00;6.28;;;12.80;67.70;;;;;;5041578;28;20530;-77
2024/01/22 04:05:00;;;;;;;25.73;7.88;;;12.80;67.70;;;;;;5046025;28;20041;-76
2024/01/22 04:07:26;;;;;;;27.00;7.60;;;12.70;67.60;;;;;;5036331;28;20639;-76
2024/01/22 04:09:52;;;;;;;24.63;7.40;;;12.70;67.60;;;;;;5040295;28;20055;-76
2024/01/22 04:12:19;;;;;;;25.48;6.80;;;12.70;67.60;;;;;;5028541;28;20652;-75
2024/01/22 04:14:45;;;;;;;17.80;4.70;;;12.70;67.60;;;;;;5046034;28;20162;-78
2024/01/22 04:17:12;;;;;;;25.00;5.63;;;12.70;67.60;;;;;;5028176;28;20638;-77
2024/01/22 04:19:41;;;;;;;25.20;7.18;;;12.60;67.50;;;;;;5023790;28;20468;-76
2024/01/22 04:22:07;;;;;;;23.65;8.27;;;12.60;67.50;;;;;;5043780;28;20027;-76
2024/01/22 04:24:33;;;;;;;21.95;6.05;;;12.50;67.30;;;;;;5045849;28;20025;-76
2024/01/22 04:26:59;;;;;;;26.65;6.18;;;12.60;67.50;;;;;;5044337;28;20116;-76
2024/01/22 04:29:25;;;;;;;23.60;6.03;;;12.50;67.40;;;;;;5037638;28;20222;-79
2024/01/22 04:31:50;;;;;;;28.63;6.75;;;12.50;67.40;;;;;;5010126;28;20040;-76
2024/01/22 04:34:16;;;;;;;23.08;7.25;;;12.50;67.40;;;;;;5047811;28;20408;-75
2024/01/22 04:36:43;;;;;;;25.73;6.50;;;12.40;67.30;;;;;;5027277;28;20029;-76
2024/01/22 04:39:09;;;;;;;27.20;6.30;;;12.40;67.80;;;;;;5035437;28;20373;-75
2024/01/22 04:41:34;;;;;;;22.52;6.53;;;12.30;67.20;;;;;;5045786;28;20033;-74
2024/01/22 04:44:01;;;;;;;20.23;6.00;;;12.30;67.20;;;;;;5027170;28;20526;-75
2024/01/22 04:46:26;;;;;;;25.20;6.32;;;12.30;67.30;;;;;;5043936;28;20562;-74
2024/01/22 04:48:52;;;;;;;28.00;6.63;;;12.30;67.30;;;;;;5045828;28;20208;-75
2024/01/22 04:51:18;;;;;;;22.65;7.35;;;12.20;67.20;;;;;;5025663;28;20472;-75
2024/01/22 04:53:44;;;;;;;25.08;6.53;;;12.20;67.30;;;;;;5036000;28;20026;-73
2024/01/22 04:56:11;;;;;;;24.13;6.47;;;12.20;67.30;;;;;;5045095;28;20138;-75
2024/01/22 04:58:37;;;;;;;26.83;6.18;;;12.10;67.10;;;;;;5011758;28;20117;-75
2024/01/22 05:01:04;;;;;;;22.67;7.53;;;12.20;67.40;;;;;;5041171;28;20476;-75
2024/01/22 05:03:30;;;;;;;24.55;5.90;;;12.10;67.10;;;;;;5044483;28;20171;-73
2024/01/22 05:05:55;;;;;;;25.92;6.60;;;12.10;67.20;;;;;;5038228;28;20578;-76
2024/01/22 05:08:21;;;;;;;25.95;5.88;;;12.10;67.20;;;;;;5033022;28;20276;-75
2024/01/22 05:10:48;;;;;;;25.15;6.18;;;12.10;67.20;;;;;;5014362;28;20501;-76
2024/01/22 05:13:14;;;;;;;24.33;5.65;;;12.00;67.60;;;;;;5042898;28;20026;-75
2024/01/22 05:15:41;;;;;;;25.33;6.20;;;12.00;67.00;;;;;;5045303;28;20135;-75
2024/01/22 05:18:07;;;;;;;20.45;5.85;;;12.00;67.10;;;;;;5044773;28;20049;-74
2024/01/22 05:20:33;;;;;;;19.17;5.53;;;11.90;66.90;;;;;;5026652;28;20110;-76
2024/01/22 05:22:59;;;;;;;23.98;5.90;;;11.90;67.00;;;;;;5026584;28;20507;-75
2024/01/22 05:25:26;;;;;;;28.60;5.88;;;11.90;67.00;;;;;;5045236;28;20029;-75
2024/01/22 05:27:52;;;;;;;19.85;5.45;;;11.90;67.00;;;;;;5047891;28;20029;-75
2024/01/22 05:30:18;;;;;;;25.05;6.95;;;11.90;67.00;;;;;;5041087;28;20522;-75
2024/01/22 05:32:44;;;;;;;23.13;7.45;;;11.80;66.90;;;;;;5048277;28;20033;-74
2024/01/22 05:35:11;;;;;;;21.85;5.57;;;11.80;66.90;;;;;;5041232;28;21141;-75
2024/01/22 05:37:37;;;;;;;21.27;4.88;;;11.80;66.90;;;;;;5046584;28;20043;-75
2024/01/22 05:40:03;;;;;;;23.08;5.15;;;11.80;67.00;;;;;;5045022;28;20029;-74
2024/01/22 05:42:29;;;;;;;24.65;5.88;;;11.80;67.00;;;;;;5049688;28;20043;-75
2024/01/22 05:44:55;;;;;;;17.88;4.90;;;11.70;66.80;;;;;;5048261;28;20108;-75
2024/01/22 05:47:21;;;;;;;24.10;5.68;;;11.70;66.90;;;;;;5045681;28;20515;-74
2024/01/22 05:49:47;;;;;;;18.70;6.25;;;11.60;66.70;;;;;;5025030;28;20091;-74
2024/01/22 05:52:14;;;;;;;18.85;4.90;;;11.70;66.90;;;;;;5026036;28;20070;-73
2024/01/22 05:54:40;;;;;;;24.00;5.47;;;11.60;66.80;;;;;;5025950;28;20033;-74
2024/01/22 05:57:06;;;;;;;20.75;5.43;;;11.60;66.80;;;;;;5026281;28;20128;-75
2024/01/22 05:59:33;;;;;;;19.88;5.18;;;11.60;66.80;;;;;;5021856;28;20483;-73
2024/01/22 06:02:00;;;;;;;21.67;4.95;;;11.60;66.80;;;;;;5027190;28;20024;-75
2024/01/22 06:04:26;;;;;;;24.48;5.63;;;11.50;66.60;;;;;;5045346;28;21449;-77
2024/01/22 06:06:52;;;;;;;28.38;5.95;;;11.50;66.60;;;;;;5034286;28;20049;-77
2024/01/22 06:09:18;;;;;;;23.55;5.75;;;11.50;66.60;;;;;;5022354;28;20627;-76
2024/01/22 06:11:44;;;;;;;21.58;5.55;;;11.40;66.50;;;;;;5026679;28;20070;-77
2024/01/22 06:14:10;;;;;;;22.60;6.05;;;11.40;66.50;;;;;;5035663;28;20666;-77
2024/01/22 06:16:39;;;;;;;19.15;5.90;;;11.40;66.50;;;;;;5023353;28;20060;-77
2024/01/22 06:19:05;;;;;;;20.85;6.00;;;11.40;66.50;;;;;;5020753;28;20110;-77
2024/01/22 06:21:31;;;;;;;24.63;6.78;;;11.40;66.50;;;;;;5041434;28;20589;-76
2024/01/22 06:23:58;;;;;;;17.50;4.45;;;11.30;66.40;;;;;;5038315;28;20544;-76
2024/01/22 06:26:24;;;;;;;25.95;7.25;;;11.30;66.40;;;;;;5027505;28;20197;-76
2024/01/22 06:28:52;;;;;;;23.70;5.60;;;11.30;66.40;;;;;;5039091;28;20089;-77
2024/01/22 06:31:18;;;;;;;25.20;6.70;;;11.30;66.50;;;;;;5007966;28;20029;-74
2024/01/22 06:33:44;;;;;;;19.45;5.10;;;11.30;66.50;;;;;;5035217;28;20039;-75
2024/01/22 06:36:10;;;;;;;18.58;4.97;;;11.30;66.40;;;;;;5018455;28;20472;-76
2024/01/22 06:38:36;;;;;;;22.48;5.78;;;11.30;66.50;;;;;;5025422;28;20471;-77
2024/01/22 06:41:03;;;;;;;26.38;7.47;;;11.20;66.30;;;;;;5031912;28;20847;-74
2024/01/22 06:43:29;;;;;;;21.98;5.03;;;11.30;66.50;;;;;;5020073;28;20392;-75
2024/01/22 06:45:55;;;;;;;21.65;5.82;;;11.20;66.20;;;;;;5017298;28;20041;-76
2024/01/22 06:48:21;;;;;;;18.52;5.18;;;11.20;66.20;;;;;;5035169;28;20037;-75
2024/01/22 06:50:47;;;;;;;19.88;5.32;;;11.20;66.20;;;;;;5035074;28;20025;-75
2024/01/22 06:53:16;;;;;;;19.02;5.05;;;11.20;66.20;;;;;;5033691;28;20344;-75
2024/01/22 06:55:42;;;;;;;17.23;4.13;;;11.20;66.20;;;;;;5016312;28;20235;-81
2024/01/22 06:58:08;;;;;;;12.70;4.00;;;11.20;66.10;;;;;;5035195;28;20032;-77
2024/01/22 07:00:36;;;;;;;14.52;2.90;;;11.20;66.20;;;;;;5030785;28;20025;-78
2024/01/22 07:03:03;;;;;;;14.23;3.78;;;11.30;67.00;;;;;;5003071;28;20025;-78
2024/01/22 07:05:29;;;;;;;10.82;4.28;;;11.40;67.70;;;;;;5016068;28;20037;-77
2024/01/22 07:07:58;;;;;;;46.42;6.35;;;11.50;68.20;;;;;;5015947;28;20403;-76
2024/01/22 07:10:24;;;;;;;26.15;5.38;;;11.70;68.80;;;;;;5035514;28;20125;-76
2024/01/22 07:12:50;;;;;;;34.15;7.35;;;11.90;69.10;;;;;;5021520;28;20044;-76
2024/01/22 07:15:16;;;;;;;28.10;6.25;;;12.00;69.20;;;;;;5034255;28;20033;-76
2024/01/22 07:17:42;;;;;;;21.52;4.90;;;12.10;69.10;;;;;;5034768;28;20028;-74
2024/01/22 07:20:13;;;;;;;17.70;4.22;;;12.20;69.10;;;;;;5019060;28;20041;-77
2024/01/22 07:22:46;;;;;;;19.52;4.93;;;12.30;69.20;;;;;;5016391;28;20183;-77
2024/01/22 07:25:12;;;;;;;19.38;5.10;;;12.30;69.40;;;;;;5009434;28;20105;-77
2024/01/22 07:27:39;;;;;;;19.25;4.50;;;12.40;69.50;;;;;;5015694;28;20033;-77
2024/01/22 07:30:11;;;;;;;13.25;4.57;;;12.40;69.60;;;;;;5011901;28;20633;-76
2024/01/22 07:32:39;;;;;;;12.95;3.30;;;12.40;69.80;;;;;;5035045;28;20098;-75
2024/01/22 07:35:09;;;;;;;20.85;4.82;;;12.50;69.90;;;;;;5011628;28;20511;-77
2024/01/22 07:37:37;;;;;;;13.20;4.10;;;12.40;69.70;;;;;;5016802;28;20033;-77
2024/01/22 07:40:04;;;;;;;17.75;4.00;;;12.40;69.60;;;;;;5019761;28;20151;-77
2024/01/22 07:42:34;;;;;;;16.10;4.72;;;12.40;69.60;;;;;;5037605;28;20467;-76
2024/01/22 07:45:01;;;;;;;19.35;4.18;;;12.40;69.50;;;;;;5036783;28;20191;-78
2024/01/22 07:47:27;;;;;;;14.98;2.92;;;12.40;69.60;;;;;;5035062;28;20075;-78
2024/01/22 07:49:54;;;;;;;13.55;3.88;;;12.30;69.30;;;;;;5017010;28;20036;-76
2024/01/22 07:52:21;;;;;;;11.98;3.85;;;12.20;69.10;;;;;;5033346;28;20036;-75
2024/01/22 07:54:48;;;;;;;11.32;2.75;;;12.20;69.10;;;;;;5019825;28;20362;-75
2024/01/22 07:57:15;;;;;;;19.45;3.97;;;12.20;69.00;;;;;;5035304;28;20033;-77
2024/01/22 07:59:41;;;;;;;9.73;2.92;;;12.10;68.80;;;;;;5020947;28;20111;-75
2024/01/22 08:02:07;;;;;;;13.57;3.53;;;12.10;68.80;;;;;;5030464;28;20086;-74
2024/01/22 08:04:33;;;;;;;17.25;4.30;;;12.00;68.60;;;;;;5026754;28;20028;-75
2024/01/22 08:07:00;;;;;;;16.85;3.50;;;12.00;68.60;;;;;;5018148;28;20036;-76
2024/01/22 08:09:27;;;;;;;15.02;3.85;;;11.90;68.40;;;;;;5031503;28;20025;-75
2024/01/22 08:11:53;;;;;;;14.95;3.10;;;11.90;68.40;;;;;;5027253;28;20120;-77
2024/01/22 08:14:22;;;;;;;11.95;3.67;;;11.80;68.20;;;;;;5019102;28;20607;-76
2024/01/22 08:16:49;;;;;;;16.75;4.15;;;11.80;68.20;;;;;;5015703;28;20034;-76
2024/01/22 08:19:18;;;;;;;19.25;4.90;;;11.80;68.10;;;;;;5012400;28;20026;-74
2024/01/22 08:21:45;;;;;;;17.20;4.80;;;11.80;68.10;;;;;;5027676;28;20040;-75
2024/01/22 08:24:11;;;;;;;18.38;4.32;;;11.70;67.90;;;;;;5034363;28;20112;-75
2024/01/22 08:26:37;;;;;;;21.92;5.40;;;11.70;67.80;;;;;;5030396;28;20047;-76
2024/01/22 08:29:03;;;;;;;16.95;3.88;;;11.70;67.80;;;;;;5027822;28;20025;-75
2024/01/22 08:31:29;;;;;;;18.20;4.38;;;11.70;67.70;;;;;;5003316;28;20044;-75
2024/01/22 08:33:56;;;;;;;18.02;5.03;;;11.70;67.70;;;;;;5024345;28;20025;-74
2024/01/22 08:36:23;;;;;;;17.40;4.15;;;11.70;67.70;;;;;;5015429;28;20398;-76
2024/01/22 08:38:49;;;;;;;13.75;3.67;;;11.70;67.70;;;;;;5035685;28;20029;-76
2024/01/22 08:41:15;;;;;;;20.42;4.90;;;11.70;67.60;;;;;;5032434;28;20036;-77
2024/01/22 08:43:41;;;;;;;18.77;4.25;;;11.60;67.30;;;;;;5024065;28;20033;-77
2024/01/22 08:46:07;;;;;;;14.45;3.80;;;11.60;67.30;;;;;;5025946;28;20121;-78
2024/01/22 08:48:33;;;;;;;13.63;4.15;;;11.70;67.50;;;;;;5036770;28;20155;-77
2024/01/22 08:51:02;;;;;;;14.50;3.22;;;11.60;67.20;;;;;;5017615;28;20044;-77
2024/01/22 08:53:28;;;;;;;17.60;2.97;;;11.60;67.20;;;;;;5025292;28;20161;-77
2024/01/22 08:55:54;;;;;;;12.73;2.72;;;11.60;67.10;;;;;;5039305;28;20507;-77
2024/01/22 08:58:20;;;;;;;14.10;3.28;;;11.60;67.10;;;;;;5034036;28;20033;-78
2024/01/22 09:00:46;;;;;;;12.13;2.90;;;11.50;66.90;;;;;;5036806;28;20492;-78
2024/01/22 09:03:12;;;;;;;13.15;2.67;;;11.60;67.00;;;;;;5029561;28;20060;-76
2024/01/22 09:05:38;;;;;;;10.82;2.88;;;11.60;66.90;;;;;;5031883;28;20076;-78
2024/01/22 09:08:08;;;;;;;14.85;2.80;;;11.50;66.70;;;;;;5015744;28;20108;-77
2024/01/22 09:10:34;;;;;;;9.00;3.10;;;11.60;66.70;;;;;;5036202;28;20037;-77
2024/01/22 09:13:00;;;;;;;11.63;2.13;;;11.50;66.50;;;;;;5031667;28;20025;-77
2024/01/22 09:15:26;;;;;;;10.48;2.53;;;11.60;66.60;;;;;;4997400;28;20039;-77
2024/01/22 09:17:52;;;;;;;8.75;2.45;;;11.60;66.50;;;;;;5017341;28;20029;-76
2024/01/22 09:20:18;;;;;;;12.23;3.67;;;11.60;66.40;;;;;;5012356;28;20021;-76
2024/01/22 09:22:48;;;;;;;18.33;3.55;;;11.60;66.40;;;;;;5035841;28;20028;-77
2024/01/22 09:25:14;;;;;;;14.50;2.40;;;11.70;66.40;;;;;;5029407;28;20543;-76
2024/01/22 09:27:41;;;;;;;10.00;2.22;;;11.70;66.40;;;;;;5020477;28;20194;-76
2024/01/22 09:30:07;;;;;;;12.40;2.58;;;11.70;66.30;;;;;;5013401;28;20051;-76
2024/01/22 09:32:33;;;;;;;15.77;3.75;;;11.70;66.30;;;;;;5041509;28;20033;-76
2024/01/22 09:34:59;;;;;;;10.60;2.40;;;11.70;66.20;;;;;;5037655;28;20404;-76
2024/01/22 09:37:25;;;;;;;10.98;3.28;;;11.80;66.30;;;;;;5030899;28;20141;-77
2024/01/22 09:39:51;;;;;;;16.95;4.55;;;11.80;66.20;;;;;;5016740;28;20507;-77
2024/01/22 09:42:17;;;;;;;14.25;3.55;;;11.80;66.10;;;;;;5038582;28;20033;-77
2024/01/22 09:44:45;;;;;;;16.95;4.20;;;11.90;66.20;;;;;;5003611;28;20564;-76
2024/01/22 09:47:14;;;;;;;12.50;3.33;;;11.90;66.00;;;;;;5037071;28;20088;-77
2024/01/22 09:49:41;;;;;;;15.02;3.70;;;12.00;66.20;;;;;;5020594;28;20020;-78
2024/01/22 09:52:15;;;;;;;19.80;3.30;;;11.90;65.90;;;;;;5021270;28;20480;-77
2024/01/22 09:54:43;;;;;;;15.77;3.47;;;12.00;66.00;;;;;;5036494;28;20151;-77
2024/01/22 09:57:16;;;;;;;17.00;3.88;;;12.00;65.90;;;;;;5039251;28;20033;-74
2024/01/22 09:59:43;;;;;;;17.20;3.20;;;12.00;65.80;;;;;;5037289;28;20213;-78
2024/01/22 10:02:15;;;;;;;13.65;3.72;;;12.10;66.00;;;;;;5021359;28;20041;-77
2024/01/22 10:04:44;;;;;;;14.35;4.57;;;12.10;66.10;;;;;;5020354;28;20208;-77
2024/01/22 10:07:13;;;;;;;14.55;4.00;;;12.10;66.10;;;;;;5021332;28;20041;-76
2024/01/22 10:09:39;;;;;;;16.45;3.65;;;12.10;66.10;;;;;;5031304;28;20041;-77
2024/01/22 10:12:06;;;;;;;17.70;3.72;;;12.20;66.20;;;;;;5041243;28;20102;-78
2024/01/22 10:14:37;;;;;;;16.85;4.72;;;12.30;66.20;;;;;;5033383;28;20037;-77
2024/01/22 10:17:20;;;;;;;17.38;3.70;;;12.30;66.00;;;;;;5023753;28;20099;-78
2024/01/22 10:19:48;;;;;;;16.13;4.03;;;12.30;66.00;;;;;;5039315;28;20051;-78
2024/01/22 10:22:19;;;;;;;14.52;4.03;;;12.30;65.90;;;;;;5022610;28;20481;-77
2024/01/22 10:24:59;;;;;;;17.63;4.68;;;12.30;65.90;;;;;;5002320;28;20031;-77
2024/01/22 10:27:25;;;;;;;18.20;5.53;;;12.30;65.90;;;;;;5023250;28;20048;-77
2024/01/22 10:29:51;;;;;;;13.32;3.83;;;12.30;65.80;;;;;;5038846;28;20037;-75
2024/01/22 10:32:24;;;;;;;15.73;3.45;;;12.30;65.70;;;;;;5041304;28;20447;-76
2024/01/22 10:34:53;;;;;;;14.32;4.82;;;12.30;65.70;;;;;;5024268;28;20029;-76
2024/01/22 10:37:19;;;;;;;11.20;2.85;;;12.20;65.50;;;;;;5041057;28;20399;-77
2024/01/22 10:39:49;;;;;;;15.65;3.70;;;12.30;65.60;;;;;;5033440;28;20454;-75
2024/01/22 10:42:16;;;;;;;12.15;3.28;;;12.30;65.60;;;;;;5036375;28;20060;-76
2024/01/22 10:44:44;;;;;;;11.10;3.15;;;12.30;65.60;;;;;;5012087;28;20415;-78
2024/01/22 10:47:12;;;;;;;10.13;3.83;;;12.30;65.50;;;;;;5022561;28;20551;-76
2024/01/22 10:49:38;;;;;;;12.13;3.30;;;12.30;65.30;;;;;;5037827;28;20379;-76
2024/01/22 10:52:07;;;;;;;9.55;2.95;;;12.30;65.20;;;;;;5019123;28;20037;-77
2024/01/22 10:54:35;;;;;;;6.60;2.08;;;12.30;65.10;;;;;;5016066;28;20643;-77
2024/01/22 10:57:37;;;;;;;12.65;2.13;;;12.30;65.10;;;;;;5028538;28;20384;-77
2024/01/22 11:00:06;;;;;;;8.90;2.38;;;12.30;65.00;;;;;;4998325;28;20045;-77
2024/01/22 11:02:34;;;;;;;13.40;2.70;;;12.30;65.00;;;;;;5014354;28;20052;-77
2024/01/22 11:05:20;;;;;;;7.25;1.88;;;12.20;64.90;;;;;;5034364;28;20064;-76
2024/01/22 11:07:49;;;;;;;8.05;1.98;;;12.20;64.90;;;;;;5029614;28;20033;-77
2024/01/22 11:10:16;;;;;;;6.55;1.55;;;12.30;65.00;;;;;;5013770;28;20074;-78
2024/01/22 11:12:48;;;;;;;6.70;1.98;;;12.20;64.90;;;;;;5031457;28;20553;-78
2024/01/22 11:15:18;;;;;;;8.68;2.08;;;12.30;65.10;;;;;;5035963;28;20029;-76
2024/01/22 11:17:44;;;;;;;10.23;2.20;;;12.40;65.20;;;;;;5041940;28;20060;-77
2024/01/22 11:20:18;;;;;;;7.38;2.05;;;12.50;65.20;;;;;;5032024;28;20152;-77
2024/01/22 11:23:00;;;;;;;8.57;2.13;;;12.50;65.10;;;;;;5034261;28;20602;-77
2024/01/22 11:25:29;;;;;;;9.57;3.00;;;12.50;65.00;;;;;;5032298;28;20519;-76
2024/01/22 11:28:00;;;;;;;12.25;2.38;;;12.60;65.00;;;;;;5019769;28;20036;-77
2024/01/22 11:30:34;;;;;;;14.43;3.70;;;12.50;64.90;;;;;;5036795;28;20681;-77
2024/01/22 11:33:00;;;;;;;10.35;2.85;;;12.60;65.00;;;;;;5033758;28;20091;-77
2024/01/22 11:35:37;;;;;;;9.52;1.73;;;12.60;65.10;;;;;;5000519;28;20034;-78
2024/01/22 11:38:04;;;;;;;6.63;2.03;;;12.60;65.10;;;;;;5012934;28;20041;-77
2024/01/22 11:40:52;;;;;;;7.45;1.95;;;12.60;65.00;;;;;;5014130;28;20031;-77
2024/01/22 11:43:20;;;;;;;8.43;1.77;;;12.70;65.10;;;;;;5016896;28;20048;-76
2024/01/22 11:45:51;;;;;;;7.35;3.33;;;12.70;65.10;;;;;;5030207;28;20033;-76
2024/01/22 11:48:19;;;;;;;9.77;2.42;;;12.70;65.00;;;;;;5006370;28;20354;-77
2024/01/22 11:51:02;;;;;;;8.30;2.17;;;12.70;65.10;;;;;;5032597;28;20090;-76
2024/01/22 11:53:29;;;;;;;12.18;2.70;;;12.70;65.00;;;;;;5032668;28;20037;-76
2024/01/22 11:55:59;;;;;;;11.82;3.20;;;12.80;65.10;;;;;;5030102;28;20052;-77
2024/01/22 11:58:25;;;;;;;15.77;3.17;;;12.90;65.10;;;;;;5016964;28;20029;-77
2024/01/22 12:00:53;;;;;;;12.27;2.35;;;13.00;65.20;;;;;;5029507;28;20461;-77
2024/01/22 12:03:26;;;;;;;9.32;2.22;;;13.00;65.00;;;;;;5029672;28;20040;-78
2024/01/22 12:06:06;;;;;;;8.57;2.92;;;13.10;65.00;;;;;;5030288;28;20065;-78
2024/01/22 12:08:33;;;;;;;14.55;3.25;;;13.20;65.00;;;;;;5032963;28;20051;-77
2024/01/22 12:11:06;;;;;;;14.18;3.45;;;13.30;65.00;;;;;;5036126;28;20032;-77
2024/01/22 12:13:32;;;;;;;;;;;13.20;64.70;;;;;;5032447;28;20053;-77
2024/01/22 12:15:59;;;;;;;16.50;2.95;;;13.30;64.90;;;;;;5013250;28;19918;-79
2024/01/22 12:18:25;;;;;;;14.63;3.92;;;13.30;64.80;;;;;;5014198;28;20361;-78
2024/01/22 12:20:52;;;;;;;10.25;3.35;;;13.40;64.90;;;;;;5019502;28;20029;-79
2024/01/22 12:23:34;;;;;;;9.93;2.40;;;13.40;64.80;;;;;;5042195;28;20035;-78
2024/01/22 12:26:01;;;;;;;11.43;2.80;;;13.40;64.60;;;;;;5028207;28;20124;-76
2024/01/22 12:28:27;;;;;;;7.03;2.20;;;13.40;64.60;;;;;;5010362;28;20134;-77
2024/01/22 12:31:01;;;;;;;6.78;2.22;;;13.40;64.50;;;;;;5029763;28;20033;-78
2024/01/22 12:33:29;;;;;;;6.30;1.63;;;13.40;64.30;;;;;;5021117;28;20025;-78
2024/01/22 12:36:12;;;;;;;7.30;2.22;;;13.40;64.20;;;;;;5022481;28;20048;-77
2024/01/22 12:38:54;;;;;;;8.48;2.00;;;13.40;64.10;;;;;;5035369;28;20389;-77